Time;durP1;ratioP1;P1;durP2;ratioP2;P2;SDS_P1;SDS_P2;PMS_P1;PMS_P2;Temp;Humidity;BMP_temperature;BMP_pressure;BME280_temperature;BME280_humidity;BME280_pressure;Samples;Min_cycle;Max_cycle;Signal;HPM_P1;HPM_P2
2023/03/22 00:00:06;;;;;;;70.75;44.58;;;7.70;1.00;;;;;;4966885;28;20039;-77
2023/03/22 00:02:34;;;;;;;66.13;43.78;;;7.70;99.90;;;;;;4964172;28;20042;-77
2023/03/22 00:05:02;;;;;;;71.13;43.92;;;7.70;99.90;;;;;;4962921;28;20039;-77
2023/03/22 00:07:30;;;;;;;76.50;44.80;;;7.70;99.90;;;;;;4965160;28;20581;-77
2023/03/22 00:09:57;;;;;;;73.35;43.38;;;7.70;99.90;;;;;;4968773;28;20043;-78
2023/03/22 00:12:25;;;;;;;71.40;43.33;;;7.60;99.90;;;;;;4957373;28;20050;-77
2023/03/22 00:14:54;;;;;;;79.35;43.50;;;7.60;99.90;;;;;;4964316;28;20538;-78
2023/03/22 00:17:22;;;;;;;60.17;37.10;;;7.50;36.40;;;;;;4964182;28;20051;-78
2023/03/22 00:19:53;;;;;;;73.40;43.33;;;7.40;42.80;;;;;;4964214;28;20585;-77
2023/03/22 00:22:53;;;;;;;65.10;39.10;;;7.40;1.00;;;;;;4963636;28;20082;-78
2023/03/22 00:25:20;;;;;;;54.28;35.53;;;7.30;1.00;;;;;;4963588;28;20039;-79
2023/03/22 00:27:48;;;;;;;60.80;38.22;;;7.30;1.00;;;;;;4964529;28;20443;-77
2023/03/22 00:30:16;;;;;;;63.63;39.47;;;7.30;1.00;;;;;;4946622;28;20045;-77
2023/03/22 00:32:45;;;;;;;63.03;36.88;;;7.30;1.00;;;;;;4968799;28;20039;-78
2023/03/22 00:35:15;;;;;;;56.55;33.50;;;7.30;1.00;;;;;;4965567;28;20049;-78
2023/03/22 00:37:43;;;;;;;58.38;33.78;;;7.30;99.90;;;;;;4964155;28;20038;-78
2023/03/22 00:40:13;;;;;;;53.75;32.63;;;7.30;1.00;;;;;;4965899;28;20060;-76
2023/03/22 00:42:41;;;;;;;46.42;29.25;;;7.30;99.90;;;;;;4964573;28;20051;-76
2023/03/22 00:45:11;;;;;;;55.97;35.58;;;7.30;1.00;;;;;;4944727;28;20431;-76
2023/03/22 00:47:38;;;;;;;66.57;38.78;;;7.30;1.00;;;;;;4944329;28;20043;-76
2023/03/22 00:50:08;;;;;;;68.78;39.78;;;7.30;1.00;;;;;;4963400;28;20130;-75
2023/03/22 00:52:38;;;;;;;64.10;37.80;;;7.30;99.90;;;;;;4959608;28;20106;-77
2023/03/22 00:55:06;;;;;;;73.45;42.30;;;7.20;1.00;;;;;;4942672;29;20453;-77
2023/03/22 00:57:33;;;;;;;72.22;40.65;;;7.20;1.00;;;;;;4943729;29;20133;-77
2023/03/22 01:00:08;;;;;;;69.70;41.03;;;7.20;99.90;;;;;;4945134;28;20982;-77
2023/03/22 01:02:35;;;;;;;75.28;42.53;;;7.20;99.90;;;;;;4941409;28;20142;-77
2023/03/22 01:05:03;;;;;;;73.57;42.42;;;7.20;99.90;;;;;;4944465;29;20064;-77
2023/03/22 01:07:31;;;;;;;80.60;45.55;;;7.30;99.90;;;;;;4948465;29;20052;-79
2023/03/22 01:10:00;;;;;;;78.60;44.28;;;7.30;1.00;;;;;;4930793;29;20066;-77
2023/03/22 01:12:27;;;;;;;83.75;46.75;;;7.30;1.00;;;;;;4944081;29;20129;-76
2023/03/22 01:14:54;;;;;;;83.68;49.05;;;7.30;99.90;;;;;;4926745;29;20043;-76
2023/03/22 01:17:22;;;;;;;77.88;47.97;;;7.30;1.00;;;;;;4928412;29;20090;-77
2023/03/22 01:19:49;;;;;;;77.82;44.92;;;7.30;48.10;;;;;;4925393;29;20059;-76
2023/03/22 01:22:17;;;;;;;58.20;35.15;;;7.20;99.90;;;;;;4943021;29;20062;-77
2023/03/22 01:24:44;;;;;;;53.47;34.17;;;7.30;99.90;;;;;;4937313;29;20047;-78
2023/03/22 01:27:13;;;;;;;59.58;37.33;;;7.30;99.90;;;;;;4928303;29;20054;-77
2023/03/22 01:29:41;;;;;;;52.25;32.53;;;7.30;99.90;;;;;;4926378;29;20094;-77
2023/03/22 01:32:09;;;;;;;47.67;30.80;;;7.30;1.00;;;;;;4928002;29;20397;-76
2023/03/22 01:34:36;;;;;;;58.03;35.83;;;7.30;1.00;;;;;;4926719;29;20126;-78
2023/03/22 01:37:06;;;;;;;51.00;33.28;;;7.20;1.00;;;;;;4926472;29;20146;-76
2023/03/22 01:39:35;;;;;;;55.60;35.90;;;7.10;1.00;;;;;;4923644;29;20199;-76
2023/03/22 01:42:06;;;;;;;58.22;36.95;;;7.00;1.00;;;;;;4925172;29;20051;-77
2023/03/22 01:44:37;;;;;;;51.75;34.72;;;7.00;1.00;;;;;;4925939;29;20047;-77
2023/03/22 01:47:04;;;;;;;48.72;32.00;;;7.00;1.00;;;;;;4925776;29;20072;-77
2023/03/22 01:49:34;;;;;;;48.17;31.88;;;7.00;65.00;;;;;;4926074;29;20043;-77
2023/03/22 01:52:06;;;;;;;43.25;28.77;;;7.00;93.90;;;;;;4928280;28;20058;-77
2023/03/22 01:55:12;;;;;;;43.42;29.77;;;7.00;99.90;;;;;;4945055;28;20043;-77
2023/03/22 01:57:45;;;;;;;53.95;36.15;;;7.00;1.00;;;;;;4951728;28;20054;-78
2023/03/22 02:00:22;;;;;;;55.25;37.97;;;7.00;99.90;;;;;;4944226;28;20051;-78
2023/03/22 02:03:20;;;;;;;56.83;37.10;;;7.00;99.90;;;;;;4962220;28;20115;-79
2023/03/22 02:05:48;;;;;;;54.38;38.25;;;6.90;1.00;;;;;;4958539;28;20703;-77
2023/03/22 02:08:16;;;;;;;56.28;38.30;;;6.90;1.00;;;;;;4945481;28;20506;-76
2023/03/22 02:11:01;;;;;;;50.08;35.70;;;6.90;21.00;;;;;;4944639;28;20068;-77
2023/03/22 02:13:54;;;;;;;51.35;35.53;;;7.00;7.30;;;;;;4945351;28;20062;-77
2023/03/22 02:16:59;;;;;;;54.97;37.00;;;7.00;99.90;;;;;;4927134;28;20047;-79
2023/03/22 02:20:10;;;;;;;57.83;38.92;;;7.00;1.00;;;;;;4940104;28;20138;-77
2023/03/22 02:23:15;;;;;;;58.70;38.22;;;7.10;1.00;;;;;;4943982;28;20062;-77
2023/03/22 02:26:12;;;;;;;52.38;33.60;;;7.20;1.00;;;;;;4941651;28;20042;-77
2023/03/22 02:28:47;;;;;;;50.08;32.28;;;7.20;1.00;;;;;;4971172;28;20054;-78
2023/03/22 02:31:33;;;;;;;54.65;32.47;;;7.30;1.00;;;;;;4962105;28;21157;-77
2023/03/22 02:34:32;;;;;;;42.00;28.10;;;7.30;1.00;;;;;;4962111;28;20055;-77
2023/03/22 02:37:35;;;;;;;43.33;26.98;;;7.30;1.00;;;;;;4988190;28;20062;-80
2023/03/22 02:40:11;;;;;;;44.47;25.67;;;7.20;1.00;;;;;;4968631;28;20043;-77
2023/03/22 02:42:50;;;;;;;45.42;27.95;;;7.20;1.00;;;;;;4959608;28;20043;-76
2023/03/22 02:45:27;;;;;;;42.13;26.35;;;7.20;1.00;;;;;;4959428;28;20047;-76
2023/03/22 02:48:01;;;;;;;39.45;26.08;;;7.10;98.60;;;;;;4961220;28;20050;-77
2023/03/22 02:50:34;;;;;;;44.90;29.08;;;7.20;1.00;;;;;;4961107;28;20114;-78
2023/03/22 02:53:06;;;;;;;45.50;28.85;;;7.30;99.90;;;;;;4963782;28;20058;-77
2023/03/22 02:55:40;;;;;;;40.38;27.40;;;7.40;99.90;;;;;;4966951;28;20050;-76
2023/03/22 02:58:12;;;;;;;50.83;32.15;;;7.40;40.10;;;;;;4949610;28;20061;-77
2023/03/22 03:00:41;;;;;;;45.55;31.02;;;7.50;1.00;;;;;;4961589;28;20541;-77
2023/03/22 03:03:12;;;;;;;45.92;28.60;;;7.50;1.00;;;;;;4960665;28;20054;-76
2023/03/22 03:05:42;;;;;;;42.28;27.00;;;7.60;1.00;;;;;;4962557;28;20071;-76
2023/03/22 03:08:13;;;;;;;44.83;29.08;;;7.60;99.90;;;;;;4951571;28;20484;-77
2023/03/22 03:10:45;;;;;;;41.83;26.08;;;7.60;99.90;;;;;;4943965;28;20054;-77
2023/03/22 03:13:13;;;;;;;43.33;27.67;;;7.60;99.90;;;;;;4945155;28;20458;-77
2023/03/22 03:15:42;;;;;;;40.45;27.40;;;7.60;99.90;;;;;;4960379;28;20253;-75
2023/03/22 03:18:31;;;;;;;40.58;26.45;;;7.60;96.30;;;;;;4951862;28;20059;-75
2023/03/22 03:21:07;;;;;;;39.30;26.00;;;7.60;99.90;;;;;;4949808;28;20047;-77
2023/03/22 03:23:48;;;;;;;36.97;24.73;;;7.70;1.00;;;;;;4948238;28;20088;-76
2023/03/22 03:26:24;;;;;;;37.63;24.95;;;7.70;99.90;;;;;;4966719;28;20043;-78
2023/03/22 03:28:59;;;;;;;38.08;25.45;;;7.80;1.00;;;;;;4948555;28;20049;-78
2023/03/22 03:31:34;;;;;;;41.80;27.25;;;7.90;1.00;;;;;;4950538;28;20047;-78
2023/03/22 03:34:11;;;;;;;48.60;29.48;;;7.90;1.00;;;;;;4955864;28;20043;-78
2023/03/22 03:36:44;;;;;;;45.42;29.98;;;7.80;1.00;;;;;;4986065;28;20045;-77
2023/03/22 03:39:15;;;;;;;44.33;28.02;;;7.70;1.00;;;;;;4960972;28;20071;-77
2023/03/22 03:41:46;;;;;;;41.85;27.58;;;7.70;1.00;;;;;;4964368;28;20118;-77
2023/03/22 03:44:14;;;;;;;41.55;26.73;;;7.70;99.90;;;;;;4945374;28;20745;-77
2023/03/22 03:46:42;;;;;;;39.53;26.10;;;7.70;99.90;;;;;;4966999;28;20042;-79
2023/03/22 03:49:12;;;;;;;39.63;25.35;;;7.70;1.00;;;;;;4968654;28;20073;-78
2023/03/22 03:51:48;;;;;;;40.65;26.02;;;7.80;1.00;;;;;;4970447;28;20037;-79
2023/03/22 03:54:15;;;;;;;35.53;24.65;;;7.80;1.00;;;;;;4954411;28;20074;-78
2023/03/22 03:56:46;;;;;;;38.35;25.02;;;7.90;1.00;;;;;;4957479;28;20426;-78
2023/03/22 03:59:15;;;;;;;39.45;24.98;;;7.80;99.90;;;;;;4973803;28;20078;-77
2023/03/22 04:01:50;;;;;;;50.63;36.72;;;7.80;99.90;;;;;;4962969;28;20054;-78
2023/03/22 04:04:26;;;;;;;47.70;30.60;;;7.80;99.90;;;;;;4962274;28;20027;-77
2023/03/22 04:07:11;;;;;;;46.17;28.60;;;7.80;89.20;;;;;;4962804;28;20039;-78
2023/03/22 04:09:40;;;;;;;44.53;28.70;;;7.80;99.90;;;;;;4985477;28;20018;-78
2023/03/22 04:12:22;;;;;;;39.38;27.70;;;7.70;99.90;;;;;;4960752;28;20086;-78
2023/03/22 04:15:16;;;;;;;39.05;26.27;;;7.70;1.00;;;;;;4969140;28;20051;-79
2023/03/22 04:17:47;;;;;;;39.72;25.95;;;7.70;99.90;;;;;;4965464;28;20023;-77
2023/03/22 04:20:18;;;;;;;38.95;26.25;;;7.70;1.00;;;;;;4965802;28;20049;-77
2023/03/22 04:22:47;;;;;;;37.30;24.90;;;7.70;99.90;;;;;;4958314;28;20039;-78
2023/03/22 04:25:16;;;;;;;38.08;25.50;;;7.80;1.00;;;;;;4984829;28;20043;-78
2023/03/22 04:27:54;;;;;;;38.50;25.95;;;7.80;99.90;;;;;;4969500;28;20067;-79
2023/03/22 04:30:23;;;;;;;38.70;26.48;;;7.90;99.90;;;;;;4955079;28;20079;-79
2023/03/22 04:33:14;;;;;;;37.60;25.67;;;7.90;1.00;;;;;;4947050;28;20078;-77
2023/03/22 04:36:05;;;;;;;35.92;24.92;;;7.90;1.00;;;;;;4961478;28;20042;-76
2023/03/22 04:38:41;;;;;;;38.35;26.23;;;7.90;1.00;;;;;;4969151;28;20066;-78
2023/03/22 04:41:15;;;;;;;40.17;26.83;;;7.90;1.00;;;;;;4954836;28;20098;-77
2023/03/22 04:43:49;;;;;;;36.97;26.67;;;7.90;1.00;;;;;;4950343;28;20046;-75
2023/03/22 04:46:20;;;;;;;42.63;27.17;;;8.00;1.00;;;;;;4956836;28;21201;-75
2023/03/22 04:48:58;;;;;;;40.90;26.50;;;8.00;99.90;;;;;;4946274;28;20082;-76
2023/03/22 04:51:27;;;;;;;42.33;25.40;;;8.00;1.00;;;;;;4969768;28;20506;-78
2023/03/22 04:54:15;;;;;;;38.92;26.17;;;8.10;1.00;;;;;;4944826;28;20040;-77
2023/03/22 04:56:44;;;;;;;46.47;29.70;;;8.10;1.00;;;;;;4944682;28;20046;-77
2023/03/22 04:59:16;;;;;;;44.58;27.15;;;8.20;99.90;;;;;;4943920;28;20036;-76
2023/03/22 05:01:44;;;;;;;40.78;28.73;;;8.10;1.00;;;;;;4944327;28;20502;-77
2023/03/22 05:04:17;;;;;;;41.53;27.60;;;8.10;82.90;;;;;;4944898;28;20043;-77
2023/03/22 05:06:45;;;;;;;42.40;27.15;;;8.10;95.10;;;;;;4976496;28;20062;-78
2023/03/22 05:09:20;;;;;;;41.58;28.13;;;8.20;99.90;;;;;;4966556;28;20046;-77
2023/03/22 05:11:48;;;;;;;37.58;26.08;;;8.20;99.90;;;;;;4946962;28;20125;-78
2023/03/22 05:14:38;;;;;;;43.42;26.20;;;8.20;99.90;;;;;;4932825;28;20063;-77
2023/03/22 05:17:06;;;;;;;38.25;26.90;;;8.10;99.90;;;;;;4962430;28;20051;-77
2023/03/22 05:19:37;;;;;;;43.55;28.42;;;8.10;1.00;;;;;;4950263;28;20049;-77
2023/03/22 05:22:18;;;;;;;41.05;28.55;;;8.10;1.00;;;;;;4970304;28;20705;-76
2023/03/22 05:24:48;;;;;;;45.15;30.13;;;8.10;1.00;;;;;;4945285;28;20051;-77
2023/03/22 05:27:29;;;;;;;52.75;35.28;;;8.20;99.90;;;;;;4953803;28;20051;-75
2023/03/22 05:30:03;;;;;;;56.50;34.80;;;8.30;68.70;;;;;;4954298;28;20122;-76
2023/03/22 05:33:01;;;;;;;55.90;35.25;;;8.30;1.00;;;;;;4960629;28;20146;-77
2023/03/22 05:35:30;;;;;;;54.58;34.05;;;8.40;1.00;;;;;;4945020;28;20051;-76
2023/03/22 05:38:01;;;;;;;57.05;34.63;;;8.40;1.00;;;;;;4946148;28;20043;-75
2023/03/22 05:40:31;;;;;;;53.67;33.55;;;8.50;1.00;;;;;;4945223;28;20065;-76
2023/03/22 05:43:00;;;;;;;69.72;41.78;;;8.60;1.00;;;;;;4948221;28;20051;-75
2023/03/22 05:45:31;;;;;;;55.78;36.30;;;8.70;1.00;;;;;;4947290;28;20050;-78
2023/03/22 05:48:14;;;;;;;55.95;36.05;;;8.80;99.90;;;;;;4969576;28;20043;-76
2023/03/22 05:50:42;;;;;;;69.28;40.17;;;8.90;99.90;;;;;;4945611;28;20086;-77
2023/03/22 05:53:10;;;;;;;58.58;38.88;;;9.00;77.80;;;;;;4935013;29;20130;-77
2023/03/22 05:55:49;;;;;;;48.90;32.00;;;9.10;1.00;;;;;;4924058;29;20516;-78
2023/03/22 05:58:17;;;;;;;48.15;31.58;;;9.30;1.00;;;;;;4924490;29;20045;-78
2023/03/22 06:00:50;;;;;;;49.05;31.00;;;9.40;1.00;;;;;;4926469;29;20462;-78
2023/03/22 06:03:26;;;;;;;47.17;30.92;;;9.60;1.00;;;;;;4940343;29;20043;-77
2023/03/22 06:05:59;;;;;;;53.97;33.33;;;9.80;1.00;;;;;;4922584;29;20040;-77
2023/03/22 06:08:43;;;;;;;43.15;27.77;;;10.00;1.00;;;;;;4921586;29;20133;-76
2023/03/22 06:11:11;;;;;;;41.25;27.10;;;10.20;99.90;;;;;;4923999;29;20043;-78
2023/03/22 06:13:39;;;;;;;40.70;27.75;;;10.30;99.90;;;;;;4923710;29;20039;-76
2023/03/22 06:16:10;;;;;;;39.88;27.98;;;10.40;99.90;;;;;;4917616;29;20050;-76
2023/03/22 06:18:37;;;;;;;44.72;28.38;;;10.50;99.90;;;;;;4926617;29;20049;-78
2023/03/22 06:21:11;;;;;;;54.38;32.70;;;10.70;99.90;;;;;;4926468;29;20055;-77
2023/03/22 06:23:39;;;;;;;52.83;33.88;;;10.80;1.00;;;;;;4934500;29;20083;-77
2023/03/22 06:26:10;;;;;;;55.72;41.22;;;10.80;1.00;;;;;;4934821;29;20074;-78
2023/03/22 06:28:38;;;;;;;56.22;39.72;;;10.90;1.00;;;;;;4923738;29;20050;-78
2023/03/22 06:31:07;;;;;;;52.83;36.47;;;11.10;1.00;;;;;;4914510;28;20043;-77
2023/03/22 06:33:48;;;;;;;73.72;47.45;;;11.00;1.00;;;;;;4930911;29;20868;-76
2023/03/22 06:36:37;;;;;;;51.83;34.60;;;11.10;1.00;;;;;;4924485;29;20054;-78
2023/03/22 06:39:09;;;;;;;52.05;34.42;;;11.10;1.00;;;;;;4931752;29;20080;-77
2023/03/22 06:41:37;;;;;;;39.22;28.08;;;11.30;1.00;;;;;;4924355;29;20062;-77
2023/03/22 06:44:04;;;;;;;43.40;24.85;;;11.40;1.00;;;;;;4923960;29;20073;-75
2023/03/22 06:47:01;;;;;;;33.95;21.85;;;11.60;1.00;;;;;;4940032;28;20056;-76
2023/03/22 06:49:50;;;;;;;33.33;23.05;;;11.90;1.00;;;;;;4941975;28;20158;-75
2023/03/22 06:52:25;;;;;;;41.78;26.63;;;12.10;1.00;;;;;;4925132;29;20066;-73
2023/03/22 06:54:53;;;;;;;40.80;28.48;;;12.30;1.00;;;;;;4925718;29;20488;-77
2023/03/22 06:57:20;;;;;;;35.70;25.02;;;12.40;1.00;;;;;;4924982;29;20131;-78
2023/03/22 06:59:48;;;;;;;42.95;30.25;;;12.50;1.00;;;;;;4927341;29;20118;-78
2023/03/22 07:02:15;;;;;;;43.33;31.85;;;12.60;1.00;;;;;;4947688;29;20567;-77
2023/03/22 07:05:03;;;;;;;39.08;28.95;;;12.60;1.00;;;;;;4932204;29;20405;-75
2023/03/22 07:07:34;;;;;;;45.78;27.98;;;12.50;1.00;;;;;;4950206;29;20061;-79
2023/03/22 07:10:06;;;;;;;39.08;29.35;;;12.40;1.00;;;;;;4947424;29;20043;-77
2023/03/22 07:12:34;;;;;;;47.20;29.38;;;12.60;1.00;;;;;;4931028;29;20059;-79
2023/03/22 07:15:08;;;;;;;48.92;31.67;;;13.10;1.00;;;;;;4927675;29;20051;-78
2023/03/22 07:18:02;;;;;;;44.15;30.58;;;13.20;1.00;;;;;;4941779;28;20492;-76
2023/03/22 07:20:35;;;;;;;44.95;31.75;;;13.30;1.00;;;;;;4928820;29;20055;-78
2023/03/22 07:23:03;;;;;;;46.42;31.02;;;13.10;1.00;;;;;;4943222;28;20071;-80
2023/03/22 07:25:34;;;;;;;50.50;34.63;;;13.00;1.00;;;;;;4925019;29;20043;-77
2023/03/22 07:28:26;;;;;;;50.92;33.63;;;13.00;1.00;;;;;;4929051;29;20043;-76
2023/03/22 07:31:06;;;;;;;49.15;34.08;;;12.70;1.00;;;;;;4928102;29;20039;-78
2023/03/22 07:34:04;;;;;;;51.45;35.05;;;12.70;1.00;;;;;;4941858;29;20123;-77
2023/03/22 07:36:40;;;;;;;59.53;36.15;;;13.30;1.00;;;;;;4935085;29;20054;-78
2023/03/22 07:39:10;;;;;;;55.85;36.17;;;13.80;1.00;;;;;;4948980;28;20047;-81
2023/03/22 07:41:42;;;;;;;55.58;35.33;;;14.30;1.00;;;;;;4926256;29;20134;-80
2023/03/22 07:44:25;;;;;;;58.20;36.50;;;14.40;1.00;;;;;;4950272;28;20047;-79
2023/03/22 07:47:13;;;;;;;45.55;32.20;;;14.70;1.00;;;;;;4961234;29;20052;-80
2023/03/22 07:49:49;;;;;;;57.45;36.25;;;14.80;99.90;;;;;;4935282;29;20043;-80
2023/03/22 07:52:22;;;;;;;45.70;31.55;;;15.10;99.90;;;;;;4934822;28;20428;-78
2023/03/22 07:54:49;;;;;;;47.35;30.55;;;15.30;99.90;;;;;;4926659;29;20055;-76
2023/03/22 07:57:18;;;;;;;39.88;29.83;;;15.40;99.90;;;;;;4945205;29;20055;-78
2023/03/22 07:59:51;;;;;;;46.58;32.03;;;15.70;99.90;;;;;;4946537;29;20149;-78
2023/03/22 08:02:18;;;;;;;46.83;32.85;;;15.90;99.90;;;;;;4939537;29;20043;-77
2023/03/22 08:04:52;;;;;;;45.63;32.83;;;16.30;99.90;;;;;;4934657;29;20503;-77
2023/03/22 08:07:42;;;;;;;46.50;32.47;;;16.50;99.90;;;;;;4929326;29;20048;-77
2023/03/22 08:10:11;;;;;;;57.58;34.22;;;16.40;99.90;;;;;;4920169;29;20074;-78
2023/03/22 08:12:38;;;;;;;54.22;35.22;;;16.00;99.90;;;;;;4937093;29;20047;-78
2023/03/22 08:15:16;;;;;;;35.63;25.80;;;16.00;99.90;;;;;;4949133;29;20070;-78
2023/03/22 08:17:44;;;;;;;34.53;22.08;;;16.10;99.90;;;;;;4938346;29;20049;-78
2023/03/22 08:20:18;;;;;;;36.10;23.75;;;16.30;99.90;;;;;;4931032;29;20066;-75
2023/03/22 08:22:54;;;;;;;34.58;24.10;;;16.40;99.90;;;;;;4928920;29;20044;-76
2023/03/22 08:25:28;;;;;;;31.27;20.55;;;16.40;99.90;;;;;;4943917;29;20497;-78
2023/03/22 08:28:04;;;;;;;38.78;24.35;;;16.00;99.90;;;;;;4929251;29;20054;-75
2023/03/22 08:30:33;;;;;;;37.63;23.70;;;15.90;99.90;;;;;;4930250;29;20051;-78
2023/03/22 08:33:00;;;;;;;36.30;25.08;;;16.00;99.90;;;;;;4944903;29;20043;-78
2023/03/22 08:35:28;;;;;;;31.20;23.30;;;16.20;99.90;;;;;;4933604;29;20568;-79
2023/03/22 08:37:57;;;;;;;32.30;21.73;;;16.30;99.90;;;;;;4946860;28;20043;-74
2023/03/22 08:40:31;;;;;;;30.30;19.70;;;16.30;99.90;;;;;;4943501;28;20175;-77
2023/03/22 08:43:01;;;;;;;21.80;15.77;;;16.40;99.90;;;;;;4950836;29;20399;-77
2023/03/22 08:45:30;;;;;;;33.70;22.77;;;16.60;99.90;;;;;;4927179;29;20063;-80
2023/03/22 08:48:10;;;;;;;23.45;17.60;;;16.70;99.90;;;;;;4926823;29;20043;-77
2023/03/22 08:50:56;;;;;;;30.50;22.08;;;16.90;99.90;;;;;;4944105;28;20101;-76
2023/03/22 08:53:36;;;;;;;25.65;18.45;;;17.10;99.90;;;;;;4949110;28;20106;-77
2023/03/22 08:56:23;;;;;;;23.05;17.08;;;17.30;99.90;;;;;;4961392;28;20146;-76
2023/03/22 08:59:04;;;;;;;26.40;15.85;;;17.20;99.90;;;;;;4944962;28;20055;-76
2023/03/22 09:01:43;;;;;;;15.80;11.07;;;17.20;99.90;;;;;;4945761;28;20050;-78
2023/03/22 09:04:12;;;;;;;21.58;13.27;;;17.10;99.90;;;;;;4945572;28;20114;-77
2023/03/22 09:06:43;;;;;;;20.02;14.35;;;17.20;99.90;;;;;;4945434;28;20061;-78
2023/03/22 09:09:13;;;;;;;18.83;14.63;;;17.40;99.90;;;;;;4945470;28;20085;-76
2023/03/22 09:11:43;;;;;;;23.15;15.95;;;17.50;99.90;;;;;;4945444;28;20142;-80
2023/03/22 09:14:11;;;;;;;17.85;11.18;;;17.50;99.90;;;;;;4944500;28;20050;-81
2023/03/22 09:16:38;;;;;;;19.10;11.90;;;17.80;99.90;;;;;;4945717;28;20073;-78
2023/03/22 09:19:06;;;;;;;19.15;11.95;;;18.10;99.90;;;;;;4945138;28;20053;-76
2023/03/22 09:21:35;;;;;;;16.67;12.68;;;18.20;99.90;;;;;;4946005;28;20053;-79
2023/03/22 09:24:18;;;;;;;18.95;14.38;;;18.20;99.90;;;;;;4967522;28;20208;-78
2023/03/22 09:26:50;;;;;;;19.80;13.52;;;18.30;99.90;;;;;;4937087;28;20050;-78
2023/03/22 09:29:19;;;;;;;26.35;17.30;;;18.50;99.90;;;;;;4945520;28;20090;-79
2023/03/22 09:31:48;;;;;;;19.85;14.98;;;18.50;99.90;;;;;;4947900;28;20120;-81
2023/03/22 09:34:19;;;;;;;25.27;16.88;;;18.40;99.90;;;;;;4960853;28;20059;-76
2023/03/22 09:36:47;;;;;;;26.23;16.98;;;18.50;99.90;;;;;;4958683;28;20061;-80
2023/03/22 09:39:18;;;;;;;22.40;15.70;;;18.60;99.90;;;;;;4978132;28;20118;-77
2023/03/22 09:41:54;;;;;;;20.60;14.73;;;19.00;99.90;;;;;;4958518;28;20039;-79
2023/03/22 09:44:27;;;;;;;27.85;17.05;;;19.10;99.90;;;;;;4965675;28;20051;-78
2023/03/22 09:46:58;;;;;;;28.23;19.48;;;19.30;99.90;;;;;;4947539;28;20047;-75
2023/03/22 09:49:30;;;;;;;37.13;23.95;;;19.30;99.90;;;;;;4964276;28;20051;-75
2023/03/22 09:51:58;;;;;;;23.20;15.75;;;19.40;99.90;;;;;;4962172;28;20083;-79
2023/03/22 09:54:33;;;;;;;24.17;17.13;;;19.40;99.90;;;;;;4963325;28;20050;-81
2023/03/22 09:57:07;;;;;;;23.67;16.23;;;19.40;99.90;;;;;;4960103;28;20073;-80
2023/03/22 09:59:44;;;;;;;20.02;15.05;;;19.30;99.90;;;;;;4944875;28;20043;-78
2023/03/22 10:02:35;;;;;;;25.25;16.88;;;18.80;99.90;;;;;;4958754;28;20044;-76
2023/03/22 10:05:16;;;;;;;23.20;16.35;;;18.80;99.90;;;;;;4961697;28;20571;-77
2023/03/22 10:08:05;;;;;;;24.58;16.05;;;19.10;99.90;;;;;;4943996;28;20410;-75
2023/03/22 10:10:34;;;;;;;25.65;17.60;;;18.80;99.90;;;;;;4965883;28;20043;-77
2023/03/22 10:13:07;;;;;;;19.65;13.73;;;18.70;99.90;;;;;;4962888;28;20555;-76
2023/03/22 10:15:39;;;;;;;23.98;14.27;;;18.70;99.90;;;;;;4943569;28;20054;-75
2023/03/22 10:18:13;;;;;;;22.52;15.02;;;18.80;99.90;;;;;;4967424;28;20047;-74
2023/03/22 10:20:46;;;;;;;22.33;14.07;;;18.90;99.90;;;;;;4961169;28;20058;-74
2023/03/22 10:23:18;;;;;;;24.63;14.40;;;19.00;99.90;;;;;;4959934;28;20174;-75
2023/03/22 10:25:48;;;;;;;18.45;12.10;;;19.30;99.90;;;;;;4953257;28;20121;-75
2023/03/22 10:28:19;;;;;;;24.67;14.52;;;19.50;99.90;;;;;;4964300;28;20065;-75
2023/03/22 10:30:52;;;;;;;19.63;13.27;;;19.60;99.90;;;;;;4961383;28;20042;-74
2023/03/22 10:33:28;;;;;;;19.42;14.48;;;19.80;99.90;;;;;;4964724;28;20066;-74
2023/03/22 10:35:56;;;;;;;22.60;16.20;;;20.10;99.90;;;;;;4963969;28;20122;-75
2023/03/22 10:38:28;;;;;;;22.00;15.00;;;19.90;99.90;;;;;;4964845;28;20126;-75
2023/03/22 10:40:59;;;;;;;21.65;13.07;;;20.10;99.90;;;;;;4966363;28;20404;-75
2023/03/22 10:43:32;;;;;;;29.10;14.63;;;20.10;99.90;;;;;;4965882;28;20050;-74
2023/03/22 10:46:02;;;;;;;22.80;14.43;;;20.10;99.90;;;;;;4970929;28;20051;-76
2023/03/22 10:48:33;;;;;;;19.48;13.88;;;20.00;99.90;;;;;;4974037;28;20115;-76
2023/03/22 10:51:03;;;;;;;20.20;13.10;;;19.70;99.90;;;;;;4975949;28;20039;-75
2023/03/22 10:53:37;;;;;;;17.52;12.48;;;19.30;99.90;;;;;;4971741;28;20066;-76
2023/03/22 10:56:13;;;;;;;18.58;11.18;;;19.20;99.90;;;;;;4955932;28;20388;-73
2023/03/22 10:58:40;;;;;;;17.02;10.13;;;19.30;99.90;;;;;;4967661;28;20050;-75
2023/03/22 11:01:09;;;;;;;20.85;10.73;;;19.50;99.90;;;;;;4965256;28;20101;-76
2023/03/22 11:03:40;;;;;;;13.77;9.93;;;19.70;99.90;;;;;;4964807;28;20194;-75
2023/03/22 11:06:10;;;;;;;12.68;6.45;;;19.40;99.90;;;;;;4952626;28;20083;-76
2023/03/22 11:08:46;;;;;;;9.57;6.68;;;19.50;99.90;;;;;;4964605;28;20051;-78
2023/03/22 11:11:23;;;;;;;16.33;8.10;;;19.70;99.90;;;;;;4965495;28;20055;-76
2023/03/22 11:13:54;;;;;;;7.07;3.47;;;19.70;99.90;;;;;;4958618;28;20042;-79
2023/03/22 11:16:22;;;;;;;8.15;5.47;;;19.70;99.90;;;;;;4982328;28;20075;-75
2023/03/22 11:18:50;;;;;;;4.68;1.58;;;19.70;99.90;;;;;;4968385;28;20111;-76
2023/03/22 11:21:20;;;;;;;2.40;1.30;;;19.50;99.90;;;;;;4963119;28;20392;-77
2023/03/22 11:23:55;;;;;;;3.10;1.20;;;19.40;99.90;;;;;;4963284;28;20042;-78
2023/03/22 11:26:32;;;;;;;;;;;19.20;99.90;;;;;;4951940;28;20101;-77
2023/03/22 11:29:08;;;;;;;4.90;2.85;;;19.10;99.90;;;;;;4965426;28;19929;-74
2023/03/22 11:31:53;;;;;;;;;;;19.10;99.90;;;;;;4964442;28;20065;-75
2023/03/22 11:34:22;;;;;;;5.88;2.75;;;19.10;99.90;;;;;;4963357;28;19977;-75
2023/03/22 11:36:55;;;;;;;5.13;2.10;;;19.20;99.90;;;;;;4964081;28;20050;-75
2023/03/22 11:39:24;;;;;;;7.13;1.95;;;19.30;99.90;;;;;;4965136;28;20055;-76
2023/03/22 11:41:56;;;;;;;3.70;1.10;;;19.50;99.90;;;;;;4965115;28;20130;-75
2023/03/22 11:44:27;;;;;;;4.80;1.48;;;19.60;99.90;;;;;;4962213;28;20133;-75
2023/03/22 11:46:57;;;;;;;5.13;1.90;;;19.50;99.90;;;;;;4962083;28;20546;-74
2023/03/22 11:49:28;;;;;;;4.97;1.58;;;19.60;99.90;;;;;;4963012;28;20134;-79
2023/03/22 11:51:56;;;;;;;6.10;1.83;;;19.80;99.90;;;;;;4949193;28;20069;-76
2023/03/22 11:54:30;;;;;;;3.00;1.33;;;20.10;99.90;;;;;;4975363;28;20034;-77
2023/03/22 11:57:03;;;;;;;1.75;0.95;;;20.20;99.90;;;;;;4982786;28;20039;-74
2023/03/22 11:59:36;;;;;;;9.60;2.30;;;20.30;99.90;;;;;;4970403;28;20051;-75
2023/03/22 12:02:14;;;;;;;6.72;2.00;;;20.20;99.90;;;;;;4963656;28;20055;-77
2023/03/22 12:04:44;;;;;;;4.40;1.40;;;19.90;99.90;;;;;;4962844;28;20063;-79
2023/03/22 12:07:16;;;;;;;5.25;1.60;;;19.70;99.90;;;;;;4964348;28;20498;-77
2023/03/22 12:09:50;;;;;;;5.35;2.00;;;19.50;99.90;;;;;;4964302;28;20047;-75
2023/03/22 12:12:24;;;;;;;6.50;3.35;;;19.30;99.90;;;;;;4947174;28;20057;-75
2023/03/22 12:14:56;;;;;;;4.30;2.47;;;19.10;99.90;;;;;;4948530;28;20896;-74
2023/03/22 12:17:34;;;;;;;2.80;1.50;;;19.10;99.90;;;;;;4964052;28;20050;-76
2023/03/22 12:20:07;;;;;;;2.35;1.40;;;19.10;99.90;;;;;;4968253;28;20066;-76
2023/03/22 12:22:38;;;;;;;9.25;4.60;;;19.30;99.90;;;;;;4947109;28;20047;-79
2023/03/22 12:25:14;;;;;;;22.33;13.40;;;19.20;99.90;;;;;;4961220;28;20039;-82
2023/03/22 12:27:46;;;;;;;24.95;14.15;;;19.10;99.90;;;;;;4942989;28;20715;-78
2023/03/22 12:30:17;;;;;;;8.00;3.20;;;19.20;99.90;;;;;;4968215;28;20051;-74
2023/03/22 12:32:49;;;;;;;4.20;2.10;;;19.30;99.90;;;;;;4966585;28;20067;-75
2023/03/22 12:35:22;;;;;;;6.05;2.83;;;19.40;99.90;;;;;;4965243;28;20499;-76
2023/03/22 12:37:52;;;;;;;6.40;2.30;;;19.60;99.90;;;;;;4943445;28;20122;-74
2023/03/22 12:40:24;;;;;;;22.65;15.38;;;19.70;99.90;;;;;;4961345;28;21726;-79
2023/03/22 12:43:00;;;;;;;3.42;1.80;;;19.90;99.90;;;;;;4965111;28;20043;-80
2023/03/22 12:45:30;;;;;;;10.15;4.35;;;20.00;99.90;;;;;;4962767;28;20411;-76
2023/03/22 12:48:05;;;;;;;3.20;1.63;;;20.10;99.90;;;;;;4965846;28;20055;-74
2023/03/22 12:50:44;;;;;;;3.53;1.83;;;19.60;99.90;;;;;;4963607;28;20030;-79
2023/03/22 12:53:18;;;;;;;5.75;3.17;;;19.30;99.90;;;;;;4955578;28;20043;-77
2023/03/22 12:55:54;;;;;;;7.30;2.72;;;19.30;99.90;;;;;;4965878;28;20039;-75
2023/03/22 12:58:28;;;;;;;9.88;5.35;;;19.40;99.90;;;;;;4961295;28;20109;-76
2023/03/22 13:00:59;;;;;;;9.45;3.67;;;19.60;99.90;;;;;;4969793;28;20047;-77
2023/03/22 13:03:40;;;;;;;6.70;3.15;;;19.80;99.90;;;;;;4962980;28;20115;-76
2023/03/22 13:06:32;;;;;;;6.97;3.35;;;20.00;99.90;;;;;;4949012;28;20455;-78
2023/03/22 13:09:21;;;;;;;19.23;3.85;;;20.20;99.90;;;;;;4946066;28;20125;-76
2023/03/22 13:12:23;;;;;;;6.38;3.72;;;19.80;99.90;;;;;;4962580;28;20075;-78